sensor_id;sensor_type;location;lat;lon;timestamp;P1;P2;P0
69123;PMS5003;56232;53.384;-2.732;2023-05-23T00:00:38;7;7;
69123;PMS5003;56232;53.384;-2.732;2023-05-23T00:03:04;7;7;
69123;PMS5003;56232;53.384;-2.732;2023-05-23T00:05:29;6;6;
69123;PMS5003;56232;53.384;-2.732;2023-05-23T00:07:55;12;11;
69123;PMS5003;56232;53.384;-2.732;2023-05-23T00:10:21;7;6;
69123;PMS5003;56232;53.384;-2.732;2023-05-23T00:12:46;7;5;
69123;PMS5003;56232;53.384;-2.732;2023-05-23T00:15:12;8;7;
69123;PMS5003;56232;53.384;-2.732;2023-05-23T00:17:37;7;7;
69123;PMS5003;56232;53.384;-2.732;2023-05-23T00:20:03;7;6;
69123;PMS5003;56232;53.384;-2.732;2023-05-23T00:22:29;9;9;
69123;PMS5003;56232;53.384;-2.732;2023-05-23T00:24:54;9;9;
69123;PMS5003;56232;53.384;-2.732;2023-05-23T00:27:20;8;7;
69123;PMS5003;56232;53.384;-2.732;2023-05-23T00:29:45;9;8;
69123;PMS5003;56232;53.384;-2.732;2023-05-23T00:32:11;12;10;
69123;PMS5003;56232;53.384;-2.732;2023-05-23T00:34:36;11;10;
69123;PMS5003;56232;53.384;-2.732;2023-05-23T00:37:03;10;9;
69123;PMS5003;56232;53.384;-2.732;2023-05-23T00:39:28;9;8;
69123;PMS5003;56232;53.384;-2.732;2023-05-23T00:41:53;15;11;
69123;PMS5003;56232;53.384;-2.732;2023-05-23T00:44:19;13;11;
69123;PMS5003;56232;53.384;-2.732;2023-05-23T00:46:44;12;11;
69123;PMS5003;56232;53.384;-2.732;2023-05-23T00:49:10;11;10;
69123;PMS5003;56232;53.384;-2.732;2023-05-23T00:51:35;9;9;
69123;PMS5003;56232;53.384;-2.732;2023-05-23T00:54:01;12;10;
69123;PMS5003;56232;53.384;-2.732;2023-05-23T00:56:26;15;11;
69123;PMS5003;56232;53.384;-2.732;2023-05-23T00:58:52;13;10;
69123;PMS5003;56232;53.384;-2.732;2023-05-23T01:01:17;14;13;
69123;PMS5003;56232;53.384;-2.732;2023-05-23T01:03:43;11;10;
69123;PMS5003;56232;53.384;-2.732;2023-05-23T01:06:08;10;9;
69123;PMS5003;56232;53.384;-2.732;2023-05-23T01:08:34;11;11;
69123;PMS5003;56232;53.384;-2.732;2023-05-23T01:11:00;12;11;
69123;PMS5003;56232;53.384;-2.732;2023-05-23T01:13:27;14;11;
69123;PMS5003;56232;53.384;-2.732;2023-05-23T01:15:53;10;10;
69123;PMS5003;56232;53.384;-2.732;2023-05-23T01:18:16;17;14;
69123;PMS5003;56232;53.384;-2.732;2023-05-23T01:20:42;17;15;
69123;PMS5003;56232;53.384;-2.732;2023-05-23T01:23:11;12;12;
69123;PMS5003;56232;53.384;-2.732;2023-05-23T01:25:38;12;11;
69123;PMS5003;56232;53.384;-2.732;2023-05-23T01:27:59;11;11;
69123;PMS5003;56232;53.384;-2.732;2023-05-23T01:30:23;13;12;
69123;PMS5003;56232;53.384;-2.732;2023-05-23T01:32:49;12;11;
69123;PMS5003;56232;53.384;-2.732;2023-05-23T01:35:15;13;12;
69123;PMS5003;56232;53.384;-2.732;2023-05-23T01:37:40;11;11;
69123;PMS5003;56232;53.384;-2.732;2023-05-23T01:40:06;15;15;
69123;PMS5003;56232;53.384;-2.732;2023-05-23T01:42:31;15;14;
69123;PMS5003;56232;53.384;-2.732;2023-05-23T01:44:57;12;12;
69123;PMS5003;56232;53.384;-2.732;2023-05-23T01:47:23;15;14;
69123;PMS5003;56232;53.384;-2.732;2023-05-23T01:49:48;15;13;
69123;PMS5003;56232;53.384;-2.732;2023-05-23T01:52:14;20;17;
69123;PMS5003;56232;53.384;-2.732;2023-05-23T01:54:39;15;15;
69123;PMS5003;56232;53.384;-2.732;2023-05-23T01:57:05;16;15;
69123;PMS5003;56232;53.384;-2.732;2023-05-23T01:59:30;18;14;
69123;PMS5003;56232;53.384;-2.732;2023-05-23T02:01:56;15;13;
69123;PMS5003;56232;53.384;-2.732;2023-05-23T02:04:22;19;16;
69123;PMS5003;56232;53.384;-2.732;2023-05-23T02:06:47;15;14;
69123;PMS5003;56232;53.384;-2.732;2023-05-23T02:09:13;15;15;
69123;PMS5003;56232;53.384;-2.732;2023-05-23T02:11:39;14;14;
69123;PMS5003;56232;53.384;-2.732;2023-05-23T02:14:04;12;12;
69123;PMS5003;56232;53.384;-2.732;2023-05-23T02:16:30;11;11;
69123;PMS5003;56232;53.384;-2.732;2023-05-23T02:18:55;14;13;
69123;PMS5003;56232;53.384;-2.732;2023-05-23T02:21:20;12;12;
69123;PMS5003;56232;53.384;-2.732;2023-05-23T02:23:46;14;12;
69123;PMS5003;56232;53.384;-2.732;2023-05-23T02:26:11;15;13;
69123;PMS5003;56232;53.384;-2.732;2023-05-23T02:28:37;12;11;
69123;PMS5003;56232;53.384;-2.732;2023-05-23T02:31:02;12;12;
69123;PMS5003;56232;53.384;-2.732;2023-05-23T02:33:28;12;12;
69123;PMS5003;56232;53.384;-2.732;2023-05-23T02:35:54;12;12;
69123;PMS5003;56232;53.384;-2.732;2023-05-23T02:38:19;10;9;
69123;PMS5003;56232;53.384;-2.732;2023-05-23T02:40:45;10;10;
69123;PMS5003;56232;53.384;-2.732;2023-05-23T02:43:11;7;7;
69123;PMS5003;56232;53.384;-2.732;2023-05-23T02:45:36;8;8;
69123;PMS5003;56232;53.384;-2.732;2023-05-23T02:48:02;9;9;
69123;PMS5003;56232;53.384;-2.732;2023-05-23T02:50:27;11;10;
69123;PMS5003;56232;53.384;-2.732;2023-05-23T02:52:53;10;9;
69123;PMS5003;56232;53.384;-2.732;2023-05-23T02:55:19;8;8;
69123;PMS5003;56232;53.384;-2.732;2023-05-23T02:57:45;10;10;
69123;PMS5003;56232;53.384;-2.732;2023-05-23T03:00:11;8;8;
69123;PMS5003;56232;53.384;-2.732;2023-05-23T03:02:36;11;11;
69123;PMS5003;56232;53.384;-2.732;2023-05-23T03:05:02;9;9;
69123;PMS5003;56232;53.384;-2.732;2023-05-23T03:07:28;7;7;
69123;PMS5003;56232;53.384;-2.732;2023-05-23T03:09:53;6;6;
69123;PMS5003;56232;53.384;-2.732;2023-05-23T03:12:18;9;9;
69123;PMS5003;56232;53.384;-2.732;2023-05-23T03:14:44;8;8;
69123;PMS5003;56232;53.384;-2.732;2023-05-23T03:17:11;9;8;
69123;PMS5003;56232;53.384;-2.732;2023-05-23T03:19:35;7;7;
69123;PMS5003;56232;53.384;-2.732;2023-05-23T03:22:01;6;6;
69123;PMS5003;56232;53.384;-2.732;2023-05-23T03:24:27;8;8;
69123;PMS5003;56232;53.384;-2.732;2023-05-23T03:26:53;6;6;
69123;PMS5003;56232;53.384;-2.732;2023-05-23T03:29:18;8;8;
69123;PMS5003;56232;53.384;-2.732;2023-05-23T03:31:44;8;7;
69123;PMS5003;56232;53.384;-2.732;2023-05-23T03:34:10;10;9;
69123;PMS5003;56232;53.384;-2.732;2023-05-23T03:36:36;8;8;
69123;PMS5003;56232;53.384;-2.732;2023-05-23T03:39:02;7;7;
69123;PMS5003;56232;53.384;-2.732;2023-05-23T03:41:27;7;7;
69123;PMS5003;56232;53.384;-2.732;2023-05-23T03:43:53;8;8;
69123;PMS5003;56232;53.384;-2.732;2023-05-23T03:46:18;8;8;
69123;PMS5003;56232;53.384;-2.732;2023-05-23T03:48:44;9;9;
69123;PMS5003;56232;53.384;-2.732;2023-05-23T03:51:10;7;7;
69123;PMS5003;56232;53.384;-2.732;2023-05-23T03:53:35;6;6;
69123;PMS5003;56232;53.384;-2.732;2023-05-23T03:56:01;8;8;
69123;PMS5003;56232;53.384;-2.732;2023-05-23T03:58:27;10;9;
69123;PMS5003;56232;53.384;-2.732;2023-05-23T04:00:53;7;7;
69123;PMS5003;56232;53.384;-2.732;2023-05-23T04:03:18;8;8;
69123;PMS5003;56232;53.384;-2.732;2023-05-23T04:05:44;11;10;
69123;PMS5003;56232;53.384;-2.732;2023-05-23T04:08:09;9;8;
69123;PMS5003;56232;53.384;-2.732;2023-05-23T04:10:35;10;9;
69123;PMS5003;56232;53.384;-2.732;2023-05-23T04:13:01;9;9;
69123;PMS5003;56232;53.384;-2.732;2023-05-23T04:15:26;10;9;
69123;PMS5003;56232;53.384;-2.732;2023-05-23T04:17:52;8;8;
69123;PMS5003;56232;53.384;-2.732;2023-05-23T04:20:18;9;9;
69123;PMS5003;56232;53.384;-2.732;2023-05-23T04:22:43;8;8;
69123;PMS5003;56232;53.384;-2.732;2023-05-23T04:25:09;9;9;
69123;PMS5003;56232;53.384;-2.732;2023-05-23T04:27:35;8;7;
69123;PMS5003;56232;53.384;-2.732;2023-05-23T04:30:00;9;9;
69123;PMS5003;56232;53.384;-2.732;2023-05-23T04:32:26;9;9;
69123;PMS5003;56232;53.384;-2.732;2023-05-23T04:34:52;10;10;
69123;PMS5003;56232;53.384;-2.732;2023-05-23T04:37:17;9;9;
69123;PMS5003;56232;53.384;-2.732;2023-05-23T04:39:43;6;6;
69123;PMS5003;56232;53.384;-2.732;2023-05-23T04:42:08;13;12;
69123;PMS5003;56232;53.384;-2.732;2023-05-23T04:44:34;12;11;
69123;PMS5003;56232;53.384;-2.732;2023-05-23T04:47:00;10;10;
69123;PMS5003;56232;53.384;-2.732;2023-05-23T04:49:25;10;9;
69123;PMS5003;56232;53.384;-2.732;2023-05-23T04:51:51;8;8;
69123;PMS5003;56232;53.384;-2.732;2023-05-23T04:54:16;10;9;
69123;PMS5003;56232;53.384;-2.732;2023-05-23T04:56:42;12;12;
69123;PMS5003;56232;53.384;-2.732;2023-05-23T04:59:07;11;11;
69123;PMS5003;56232;53.384;-2.732;2023-05-23T05:01:33;11;10;
69123;PMS5003;56232;53.384;-2.732;2023-05-23T05:03:59;8;8;
69123;PMS5003;56232;53.384;-2.732;2023-05-23T05:06:25;10;9;
69123;PMS5003;56232;53.384;-2.732;2023-05-23T05:08:51;12;12;
69123;PMS5003;56232;53.384;-2.732;2023-05-23T05:11:16;12;11;
69123;PMS5003;56232;53.384;-2.732;2023-05-23T05:13:42;10;10;
69123;PMS5003;56232;53.384;-2.732;2023-05-23T05:16:07;11;11;
69123;PMS5003;56232;53.384;-2.732;2023-05-23T05:18:34;10;10;
69123;PMS5003;56232;53.384;-2.732;2023-05-23T05:20:59;13;12;
69123;PMS5003;56232;53.384;-2.732;2023-05-23T05:23:25;10;10;
69123;PMS5003;56232;53.384;-2.732;2023-05-23T05:25:50;8;8;
69123;PMS5003;56232;53.384;-2.732;2023-05-23T05:28:16;12;10;
69123;PMS5003;56232;53.384;-2.732;2023-05-23T05:30:41;10;10;
69123;PMS5003;56232;53.384;-2.732;2023-05-23T05:33:07;9;9;
69123;PMS5003;56232;53.384;-2.732;2023-05-23T05:35:33;8;7;
69123;PMS5003;56232;53.384;-2.732;2023-05-23T05:37:58;10;10;
69123;PMS5003;56232;53.384;-2.732;2023-05-23T05:40:24;12;12;
69123;PMS5003;56232;53.384;-2.732;2023-05-23T05:42:49;11;10;
69123;PMS5003;56232;53.384;-2.732;2023-05-23T05:45:15;11;9;
69123;PMS5003;56232;53.384;-2.732;2023-05-23T05:47:40;10;10;
69123;PMS5003;56232;53.384;-2.732;2023-05-23T05:50:07;11;10;
69123;PMS5003;56232;53.384;-2.732;2023-05-23T05:52:32;10;9;
69123;PMS5003;56232;53.384;-2.732;2023-05-23T05:54:58;14;12;
69123;PMS5003;56232;53.384;-2.732;2023-05-23T05:57:23;12;11;
69123;PMS5003;56232;53.384;-2.732;2023-05-23T05:59:48;12;12;
69123;PMS5003;56232;53.384;-2.732;2023-05-23T06:02:13;14;12;
69123;PMS5003;56232;53.384;-2.732;2023-05-23T06:04:39;10;10;
69123;PMS5003;56232;53.384;-2.732;2023-05-23T06:07:04;13;11;
69123;PMS5003;56232;53.384;-2.732;2023-05-23T06:09:30;11;10;
69123;PMS5003;56232;53.384;-2.732;2023-05-23T06:11:56;12;12;
69123;PMS5003;56232;53.384;-2.732;2023-05-23T06:14:21;11;11;
69123;PMS5003;56232;53.384;-2.732;2023-05-23T06:16:47;8;8;
69123;PMS5003;56232;53.384;-2.732;2023-05-23T06:19:12;7;7;
69123;PMS5003;56232;53.384;-2.732;2023-05-23T06:21:38;10;9;
69123;PMS5003;56232;53.384;-2.732;2023-05-23T06:24:04;10;10;
69123;PMS5003;56232;53.384;-2.732;2023-05-23T06:26:29;9;8;
69123;PMS5003;56232;53.384;-2.732;2023-05-23T06:28:54;9;9;
69123;PMS5003;56232;53.384;-2.732;2023-05-23T06:31:19;10;10;
69123;PMS5003;56232;53.384;-2.732;2023-05-23T06:33:45;11;10;
69123;PMS5003;56232;53.384;-2.732;2023-05-23T06:36:10;10;10;
69123;PMS5003;56232;53.384;-2.732;2023-05-23T06:38:36;10;10;
69123;PMS5003;56232;53.384;-2.732;2023-05-23T06:41:02;9;9;
69123;PMS5003;56232;53.384;-2.732;2023-05-23T06:43:27;9;9;
69123;PMS5003;56232;53.384;-2.732;2023-05-23T06:45:53;10;10;
69123;PMS5003;56232;53.384;-2.732;2023-05-23T06:48:18;12;11;
69123;PMS5003;56232;53.384;-2.732;2023-05-23T06:50:43;8;8;
69123;PMS5003;56232;53.384;-2.732;2023-05-23T06:53:09;9;9;
69123;PMS5003;56232;53.384;-2.732;2023-05-23T06:55:35;9;9;
69123;PMS5003;56232;53.384;-2.732;2023-05-23T06:58:00;10;9;
69123;PMS5003;56232;53.384;-2.732;2023-05-23T07:00:26;9;9;
69123;PMS5003;56232;53.384;-2.732;2023-05-23T07:02:52;10;9;
69123;PMS5003;56232;53.384;-2.732;2023-05-23T07:05:17;10;9;
69123;PMS5003;56232;53.384;-2.732;2023-05-23T07:07:43;9;9;
69123;PMS5003;56232;53.384;-2.732;2023-05-23T07:10:08;8;8;
69123;PMS5003;56232;53.384;-2.732;2023-05-23T07:12:34;11;11;
69123;PMS5003;56232;53.384;-2.732;2023-05-23T07:15:00;9;9;
69123;PMS5003;56232;53.384;-2.732;2023-05-23T07:17:25;10;9;
69123;PMS5003;56232;53.384;-2.732;2023-05-23T07:19:51;8;8;
69123;PMS5003;56232;53.384;-2.732;2023-05-23T07:22:16;11;10;
69123;PMS5003;56232;53.384;-2.732;2023-05-23T07:24:41;12;11;
69123;PMS5003;56232;53.384;-2.732;2023-05-23T07:27:07;12;12;
69123;PMS5003;56232;53.384;-2.732;2023-05-23T07:29:33;16;15;
69123;PMS5003;56232;53.384;-2.732;2023-05-23T07:31:58;10;10;
69123;PMS5003;56232;53.384;-2.732;2023-05-23T07:34:24;12;12;
69123;PMS5003;56232;53.384;-2.732;2023-05-23T07:36:50;16;15;
69123;PMS5003;56232;53.384;-2.732;2023-05-23T07:39:15;13;13;
69123;PMS5003;56232;53.384;-2.732;2023-05-23T07:41:40;14;14;
69123;PMS5003;56232;53.384;-2.732;2023-05-23T07:44:06;14;13;
69123;PMS5003;56232;53.384;-2.732;2023-05-23T07:46:31;13;13;
69123;PMS5003;56232;53.384;-2.732;2023-05-23T07:48:57;12;12;
69123;PMS5003;56232;53.384;-2.732;2023-05-23T07:51:22;11;11;
69123;PMS5003;56232;53.384;-2.732;2023-05-23T07:53:48;12;12;
69123;PMS5003;56232;53.384;-2.732;2023-05-23T07:56:13;13;12;
69123;PMS5003;56232;53.384;-2.732;2023-05-23T07:58:39;8;8;
69123;PMS5003;56232;53.384;-2.732;2023-05-23T08:01:05;12;12;
69123;PMS5003;56232;53.384;-2.732;2023-05-23T08:03:30;12;10;
69123;PMS5003;56232;53.384;-2.732;2023-05-23T08:05:56;7;7;
69123;PMS5003;56232;53.384;-2.732;2023-05-23T08:08:22;10;8;
69123;PMS5003;56232;53.384;-2.732;2023-05-23T08:10:47;10;10;
69123;PMS5003;56232;53.384;-2.732;2023-05-23T08:13:13;9;9;
69123;PMS5003;56232;53.384;-2.732;2023-05-23T08:15:38;9;9;
69123;PMS5003;56232;53.384;-2.732;2023-05-23T08:18:04;9;8;
69123;PMS5003;56232;53.384;-2.732;2023-05-23T08:20:30;6;6;
69123;PMS5003;56232;53.384;-2.732;2023-05-23T08:22:56;8;8;
69123;PMS5003;56232;53.384;-2.732;2023-05-23T08:25:21;8;8;
69123;PMS5003;56232;53.384;-2.732;2023-05-23T08:27:46;9;9;
69123;PMS5003;56232;53.384;-2.732;2023-05-23T08:30:12;9;9;
69123;PMS5003;56232;53.384;-2.732;2023-05-23T08:32:37;7;7;
69123;PMS5003;56232;53.384;-2.732;2023-05-23T08:35:03;7;6;
69123;PMS5003;56232;53.384;-2.732;2023-05-23T08:37:28;10;8;
69123;PMS5003;56232;53.384;-2.732;2023-05-23T08:39:53;6;6;
69123;PMS5003;56232;53.384;-2.732;2023-05-23T08:42:19;7;6;
69123;PMS5003;56232;53.384;-2.732;2023-05-23T08:44:44;7;7;
69123;PMS5003;56232;53.384;-2.732;2023-05-23T08:47:10;8;8;
69123;PMS5003;56232;53.384;-2.732;2023-05-23T08:49:36;7;6;
69123;PMS5003;56232;53.384;-2.732;2023-05-23T08:52:02;8;7;
69123;PMS5003;56232;53.384;-2.732;2023-05-23T08:54:27;6;5;
69123;PMS5003;56232;53.384;-2.732;2023-05-23T08:56:53;7;7;
69123;PMS5003;56232;53.384;-2.732;2023-05-23T08:59:18;8;6;
69123;PMS5003;56232;53.384;-2.732;2023-05-23T09:01:44;8;7;
69123;PMS5003;56232;53.384;-2.732;2023-05-23T09:04:09;8;7;
69123;PMS5003;56232;53.384;-2.732;2023-05-23T09:06:35;7;6;
69123;PMS5003;56232;53.384;-2.732;2023-05-23T09:09:00;9;7;
69123;PMS5003;56232;53.384;-2.732;2023-05-23T09:11:26;7;5;
69123;PMS5003;56232;53.384;-2.732;2023-05-23T09:13:52;9;7;
69123;PMS5003;56232;53.384;-2.732;2023-05-23T09:16:17;5;5;
69123;PMS5003;56232;53.384;-2.732;2023-05-23T09:18:43;8;8;
69123;PMS5003;56232;53.384;-2.732;2023-05-23T09:21:08;7;7;
69123;PMS5003;56232;53.384;-2.732;2023-05-23T09:23:34;4;4;
69123;PMS5003;56232;53.384;-2.732;2023-05-23T09:26:01;4;4;
69123;PMS5003;56232;53.384;-2.732;2023-05-23T09:28:25;5;5;
69123;PMS5003;56232;53.384;-2.732;2023-05-23T09:33:16;5;5;
69123;PMS5003;56232;53.384;-2.732;2023-05-23T09:35:43;6;5;
69123;PMS5003;56232;53.384;-2.732;2023-05-23T09:38:07;7;7;
69123;PMS5003;56232;53.384;-2.732;2023-05-23T09:40:32;8;6;
69123;PMS5003;56232;53.384;-2.732;2023-05-23T09:43:00;7;6;
69123;PMS5003;56232;53.384;-2.732;2023-05-23T09:45:28;6;5;
69123;PMS5003;56232;53.384;-2.732;2023-05-23T09:47:49;7;5;
69123;PMS5003;56232;53.384;-2.732;2023-05-23T09:50:14;8;6;
69123;PMS5003;56232;53.384;-2.732;2023-05-23T09:52:40;8;7;
69123;PMS5003;56232;53.384;-2.732;2023-05-23T09:55:06;8;6;
69123;PMS5003;56232;53.384;-2.732;2023-05-23T09:57:32;5;4;
69123;PMS5003;56232;53.384;-2.732;2023-05-23T09:59:57;6;5;
69123;PMS5003;56232;53.384;-2.732;2023-05-23T10:02:29;7;7;
69123;PMS5003;56232;53.384;-2.732;2023-05-23T10:04:48;7;5;
69123;PMS5003;56232;53.384;-2.732;2023-05-23T10:07:14;6;5;
69123;PMS5003;56232;53.384;-2.732;2023-05-23T10:09:39;10;7;
69123;PMS5003;56232;53.384;-2.732;2023-05-23T10:14:30;5;5;
69123;PMS5003;56232;53.384;-2.732;2023-05-23T10:16:58;4;3;
69123;PMS5003;56232;53.384;-2.732;2023-05-23T10:19:23;6;6;
69123;PMS5003;56232;53.384;-2.732;2023-05-23T10:21:49;6;5;
69123;PMS5003;56232;53.384;-2.732;2023-05-23T10:24:12;5;3;
69123;PMS5003;56232;53.384;-2.732;2023-05-23T10:26:38;5;4;
69123;PMS5003;56232;53.384;-2.732;2023-05-23T10:29:05;8;6;
69123;PMS5003;56232;53.384;-2.732;2023-05-23T10:31:29;6;6;
69123;PMS5003;56232;53.384;-2.732;2023-05-23T10:33:55;8;7;
69123;PMS5003;56232;53.384;-2.732;2023-05-23T10:36:21;4;3;
69123;PMS5003;56232;53.384;-2.732;2023-05-23T10:38:48;4;4;
69123;PMS5003;56232;53.384;-2.732;2023-05-23T10:41:12;6;4;
69123;PMS5003;56232;53.384;-2.732;2023-05-23T10:43:41;6;5;
69123;PMS5003;56232;53.384;-2.732;2023-05-23T10:46:02;4;4;
69123;PMS5003;56232;53.384;-2.732;2023-05-23T10:48:32;6;5;
69123;PMS5003;56232;53.384;-2.732;2023-05-23T10:53:19;5;3;
69123;PMS5003;56232;53.384;-2.732;2023-05-23T10:55:46;2;2;
69123;PMS5003;56232;53.384;-2.732;2023-05-23T10:58:11;5;5;
69123;PMS5003;56232;53.384;-2.732;2023-05-23T11:00:35;4;3;
69123;PMS5003;56232;53.384;-2.732;2023-05-23T11:03:03;6;5;
69123;PMS5003;56232;53.384;-2.732;2023-05-23T11:05:27;8;6;
69123;PMS5003;56232;53.384;-2.732;2023-05-23T11:10:17;4;4;
69123;PMS5003;56232;53.384;-2.732;2023-05-23T11:12:43;5;5;
69123;PMS5003;56232;53.384;-2.732;2023-05-23T11:17:34;5;4;
69123;PMS5003;56232;53.384;-2.732;2023-05-23T11:20:02;6;5;
69123;PMS5003;56232;53.384;-2.732;2023-05-23T11:22:26;5;4;
69123;PMS5003;56232;53.384;-2.732;2023-05-23T11:24:51;5;4;
69123;PMS5003;56232;53.384;-2.732;2023-05-23T11:27:16;7;5;
69123;PMS5003;56232;53.384;-2.732;2023-05-23T11:29:41;5;4;
69123;PMS5003;56232;53.384;-2.732;2023-05-23T11:32:09;6;5;
69123;PMS5003;56232;53.384;-2.732;2023-05-23T11:34:33;7;5;
69123;PMS5003;56232;53.384;-2.732;2023-05-23T11:36:58;5;5;
69123;PMS5003;56232;53.384;-2.732;2023-05-23T11:39:24;6;6;
69123;PMS5003;56232;53.384;-2.732;2023-05-23T11:44:15;5;4;
69123;PMS5003;56232;53.384;-2.732;2023-05-23T11:46:40;4;3;
69123;PMS5003;56232;53.384;-2.732;2023-05-23T11:49:09;5;5;
69123;PMS5003;56232;53.384;-2.732;2023-05-23T11:51:32;7;5;
69123;PMS5003;56232;53.384;-2.732;2023-05-23T11:53:59;3;2;
69123;PMS5003;56232;53.384;-2.732;2023-05-23T11:56:23;3;3;
69123;PMS5003;56232;53.384;-2.732;2023-05-23T11:58:48;6;6;
69123;PMS5003;56232;53.384;-2.732;2023-05-23T12:01:13;5;4;
69123;PMS5003;56232;53.384;-2.732;2023-05-23T12:03:44;8;5;
69123;PMS5003;56232;53.384;-2.732;2023-05-23T12:06:04;5;5;
69123;PMS5003;56232;53.384;-2.732;2023-05-23T12:08:30;5;5;
69123;PMS5003;56232;53.384;-2.732;2023-05-23T12:10:56;5;5;
69123;PMS5003;56232;53.384;-2.732;2023-05-23T12:13:22;4;4;
69123;PMS5003;56232;53.384;-2.732;2023-05-23T12:15:47;5;4;
69123;PMS5003;56232;53.384;-2.732;2023-05-23T12:18:12;6;5;
69123;PMS5003;56232;53.384;-2.732;2023-05-23T12:20:39;6;5;
69123;PMS5003;56232;53.384;-2.732;2023-05-23T12:23:03;4;4;
69123;PMS5003;56232;53.384;-2.732;2023-05-23T12:25:29;6;6;
69123;PMS5003;56232;53.384;-2.732;2023-05-23T12:27:55;5;3;
69123;PMS5003;56232;53.384;-2.732;2023-05-23T12:30:20;4;4;
69123;PMS5003;56232;53.384;-2.732;2023-05-23T12:32:46;4;3;
69123;PMS5003;56232;53.384;-2.732;2023-05-23T12:35:12;4;3;
69123;PMS5003;56232;53.384;-2.732;2023-05-23T12:37:37;6;5;
69123;PMS5003;56232;53.384;-2.732;2023-05-23T12:42:28;4;3;
69123;PMS5003;56232;53.384;-2.732;2023-05-23T12:44:53;4;3;
69123;PMS5003;56232;53.384;-2.732;2023-05-23T12:47:19;4;4;
69123;PMS5003;56232;53.384;-2.732;2023-05-23T12:49:45;5;4;
69123;PMS5003;56232;53.384;-2.732;2023-05-23T12:52:10;6;5;
69123;PMS5003;56232;53.384;-2.732;2023-05-23T12:54:36;4;4;
69123;PMS5003;56232;53.384;-2.732;2023-05-23T12:57:01;3;2;
69123;PMS5003;56232;53.384;-2.732;2023-05-23T12:59:26;4;4;
69123;PMS5003;56232;53.384;-2.732;2023-05-23T13:01:53;4;3;
69123;PMS5003;56232;53.384;-2.732;2023-05-23T13:04:18;5;4;
69123;PMS5003;56232;53.384;-2.732;2023-05-23T13:06:43;4;3;
69123;PMS5003;56232;53.384;-2.732;2023-05-23T13:09:09;2;2;
69123;PMS5003;56232;53.384;-2.732;2023-05-23T13:11:34;4;3;
69123;PMS5003;56232;53.384;-2.732;2023-05-23T13:14:00;4;3;
69123;PMS5003;56232;53.384;-2.732;2023-05-23T13:16:26;6;5;
69123;PMS5003;56232;53.384;-2.732;2023-05-23T13:18:52;4;3;
69123;PMS5003;56232;53.384;-2.732;2023-05-23T13:21:17;5;5;
69123;PMS5003;56232;53.384;-2.732;2023-05-23T13:23:42;4;4;
69123;PMS5003;56232;53.384;-2.732;2023-05-23T13:26:07;4;3;
69123;PMS5003;56232;53.384;-2.732;2023-05-23T13:28:33;3;3;
69123;PMS5003;56232;53.384;-2.732;2023-05-23T13:30:58;5;5;
69123;PMS5003;56232;53.384;-2.732;2023-05-23T13:33:24;5;5;
69123;PMS5003;56232;53.384;-2.732;2023-05-23T13:35:50;5;5;
69123;PMS5003;56232;53.384;-2.732;2023-05-23T13:38:16;5;4;
69123;PMS5003;56232;53.384;-2.732;2023-05-23T13:40:41;6;3;
69123;PMS5003;56232;53.384;-2.732;2023-05-23T13:43:06;4;4;
69123;PMS5003;56232;53.384;-2.732;2023-05-23T13:45:32;8;6;
69123;PMS5003;56232;53.384;-2.732;2023-05-23T13:47:57;4;4;
69123;PMS5003;56232;53.384;-2.732;2023-05-23T13:50:23;5;5;
69123;PMS5003;56232;53.384;-2.732;2023-05-23T13:52:48;6;5;
69123;PMS5003;56232;53.384;-2.732;2023-05-23T13:55:28;2;2;
69123;PMS5003;56232;53.384;-2.732;2023-05-23T13:57:39;7;4;
69123;PMS5003;56232;53.384;-2.732;2023-05-23T14:00:06;7;5;
69123;PMS5003;56232;53.384;-2.732;2023-05-23T14:02:31;5;4;
69123;PMS5003;56232;53.384;-2.732;2023-05-23T14:04:56;4;4;
69123;PMS5003;56232;53.384;-2.732;2023-05-23T14:07:22;4;4;
69123;PMS5003;56232;53.384;-2.732;2023-05-23T14:09:48;6;5;
69123;PMS5003;56232;53.384;-2.732;2023-05-23T14:12:13;4;4;
69123;PMS5003;56232;53.384;-2.732;2023-05-23T14:14:39;9;6;
69123;PMS5003;56232;53.384;-2.732;2023-05-23T14:17:04;4;3;
69123;PMS5003;56232;53.384;-2.732;2023-05-23T14:19:30;4;4;
69123;PMS5003;56232;53.384;-2.732;2023-05-23T14:21:55;5;5;
69123;PMS5003;56232;53.384;-2.732;2023-05-23T14:24:21;5;4;
69123;PMS5003;56232;53.384;-2.732;2023-05-23T14:26:46;8;6;
69123;PMS5003;56232;53.384;-2.732;2023-05-23T14:29:12;7;6;
69123;PMS5003;56232;53.384;-2.732;2023-05-23T14:31:37;7;6;
69123;PMS5003;56232;53.384;-2.732;2023-05-23T14:34:03;6;5;
69123;PMS5003;56232;53.384;-2.732;2023-05-23T14:36:29;7;4;
69123;PMS5003;56232;53.384;-2.732;2023-05-23T14:38:54;4;4;
69123;PMS5003;56232;53.384;-2.732;2023-05-23T14:41:20;4;4;
69123;PMS5003;56232;53.384;-2.732;2023-05-23T14:43:45;4;4;
69123;PMS5003;56232;53.384;-2.732;2023-05-23T14:46:11;4;3;
69123;PMS5003;56232;53.384;-2.732;2023-05-23T14:48:36;8;5;
69123;PMS5003;56232;53.384;-2.732;2023-05-23T14:51:02;4;4;
69123;PMS5003;56232;53.384;-2.732;2023-05-23T14:53:27;5;4;
69123;PMS5003;56232;53.384;-2.732;2023-05-23T14:55:54;7;4;
69123;PMS5003;56232;53.384;-2.732;2023-05-23T14:58:19;12;7;
69123;PMS5003;56232;53.384;-2.732;2023-05-23T15:00:45;5;4;
69123;PMS5003;56232;53.384;-2.732;2023-05-23T15:03:10;5;4;
69123;PMS5003;56232;53.384;-2.732;2023-05-23T15:05:36;4;3;
69123;PMS5003;56232;53.384;-2.732;2023-05-23T15:08:01;5;4;
69123;PMS5003;56232;53.384;-2.732;2023-05-23T15:10:27;6;5;
69123;PMS5003;56232;53.384;-2.732;2023-05-23T15:12:53;4;4;
69123;PMS5003;56232;53.384;-2.732;2023-05-23T15:15:18;8;6;
69123;PMS5003;56232;53.384;-2.732;2023-05-23T15:17:44;6;5;
69123;PMS5003;56232;53.384;-2.732;2023-05-23T15:20:10;6;5;
69123;PMS5003;56232;53.384;-2.732;2023-05-23T15:22:35;3;3;
69123;PMS5003;56232;53.384;-2.732;2023-05-23T15:25:01;5;4;
69123;PMS5003;56232;53.384;-2.732;2023-05-23T15:27:26;4;4;
69123;PMS5003;56232;53.384;-2.732;2023-05-23T15:29:52;5;5;
69123;PMS5003;56232;53.384;-2.732;2023-05-23T15:32:17;3;3;
69123;PMS5003;56232;53.384;-2.732;2023-05-23T15:34:43;2;2;
69123;PMS5003;56232;53.384;-2.732;2023-05-23T15:37:08;8;6;
69123;PMS5003;56232;53.384;-2.732;2023-05-23T15:39:33;6;5;
69123;PMS5003;56232;53.384;-2.732;2023-05-23T15:41:59;5;4;
69123;PMS5003;56232;53.384;-2.732;2023-05-23T15:44:25;5;5;
69123;PMS5003;56232;53.384;-2.732;2023-05-23T15:46:50;4;4;
69123;PMS5003;56232;53.384;-2.732;2023-05-23T15:49:16;5;4;
69123;PMS5003;56232;53.384;-2.732;2023-05-23T15:51:41;5;4;
69123;PMS5003;56232;53.384;-2.732;2023-05-23T15:54:07;4;3;
69123;PMS5003;56232;53.384;-2.732;2023-05-23T15:56:33;6;6;
69123;PMS5003;56232;53.384;-2.732;2023-05-23T15:58:58;6;6;
69123;PMS5003;56232;53.384;-2.732;2023-05-23T16:01:28;5;4;
69123;PMS5003;56232;53.384;-2.732;2023-05-23T16:03:49;8;8;
69123;PMS5003;56232;53.384;-2.732;2023-05-23T16:06:15;6;6;
69123;PMS5003;56232;53.384;-2.732;2023-05-23T16:08:40;6;6;
69123;PMS5003;56232;53.384;-2.732;2023-05-23T16:11:06;7;7;
69123;PMS5003;56232;53.384;-2.732;2023-05-23T16:13:31;7;4;
69123;PMS5003;56232;53.384;-2.732;2023-05-23T16:15:57;5;4;
69123;PMS5003;56232;53.384;-2.732;2023-05-23T16:18:23;6;6;
69123;PMS5003;56232;53.384;-2.732;2023-05-23T16:20:48;7;5;
69123;PMS5003;56232;53.384;-2.732;2023-05-23T16:23:13;9;8;
69123;PMS5003;56232;53.384;-2.732;2023-05-23T16:25:39;7;7;
69123;PMS5003;56232;53.384;-2.732;2023-05-23T16:28:04;6;6;